sensor_id;sensor_type;location;lat;lon;timestamp;P1;durP1;ratioP1;P2;durP2;ratioP2
70216;SDS011;65567;55.684;37.570;2023-12-22T00:00:20;5.25;;;3.22;;
70216;SDS011;65567;55.684;37.570;2023-12-22T00:02:46;7.45;;;3.75;;
70216;SDS011;65567;55.684;37.570;2023-12-22T00:05:12;7.90;;;3.55;;
70216;SDS011;65567;55.684;37.570;2023-12-22T00:07:37;5.88;;;2.85;;
70216;SDS011;65567;55.684;37.570;2023-12-22T00:10:03;6.13;;;3.22;;
70216;SDS011;65567;55.684;37.570;2023-12-22T00:12:30;6.60;;;4.00;;
70216;SDS011;65567;55.684;37.570;2023-12-22T00:14:55;3.10;;;1.58;;
70216;SDS011;65567;55.684;37.570;2023-12-22T00:17:21;2.92;;;1.48;;
70216;SDS011;65567;55.684;37.570;2023-12-22T00:19:47;4.40;;;2.60;;
70216;SDS011;65567;55.684;37.570;2023-12-22T00:22:12;6.88;;;3.55;;
70216;SDS011;65567;55.684;37.570;2023-12-22T00:24:38;4.53;;;2.28;;
70216;SDS011;65567;55.684;37.570;2023-12-22T00:27:05;6.50;;;3.20;;
70216;SDS011;65567;55.684;37.570;2023-12-22T00:29:31;4.57;;;2.38;;
70216;SDS011;65567;55.684;37.570;2023-12-22T00:32:00;6.15;;;3.10;;
70216;SDS011;65567;55.684;37.570;2023-12-22T00:34:27;7.78;;;3.75;;
70216;SDS011;65567;55.684;37.570;2023-12-22T00:36:52;4.50;;;2.05;;
70216;SDS011;65567;55.684;37.570;2023-12-22T00:39:18;7.50;;;4.57;;
70216;SDS011;65567;55.684;37.570;2023-12-22T00:41:43;3.90;;;1.95;;
70216;SDS011;65567;55.684;37.570;2023-12-22T00:44:09;5.25;;;2.42;;
70216;SDS011;65567;55.684;37.570;2023-12-22T00:46:35;4.15;;;2.75;;
70216;SDS011;65567;55.684;37.570;2023-12-22T00:49:01;7.35;;;3.55;;
70216;SDS011;65567;55.684;37.570;2023-12-22T00:51:26;4.72;;;2.67;;
70216;SDS011;65567;55.684;37.570;2023-12-22T00:53:52;5.05;;;2.30;;
70216;SDS011;65567;55.684;37.570;2023-12-22T00:56:18;6.00;;;3.35;;
70216;SDS011;65567;55.684;37.570;2023-12-22T00:58:44;5.60;;;2.85;;
70216;SDS011;65567;55.684;37.570;2023-12-22T01:01:10;4.80;;;2.28;;
70216;SDS011;65567;55.684;37.570;2023-12-22T01:03:35;6.50;;;3.53;;
70216;SDS011;65567;55.684;37.570;2023-12-22T01:06:02;7.57;;;2.95;;
70216;SDS011;65567;55.684;37.570;2023-12-22T01:08:28;6.57;;;3.67;;
70216;SDS011;65567;55.684;37.570;2023-12-22T01:10:53;5.70;;;2.95;;
70216;SDS011;65567;55.684;37.570;2023-12-22T01:13:19;5.68;;;3.33;;
70216;SDS011;65567;55.684;37.570;2023-12-22T01:15:45;6.63;;;3.78;;
70216;SDS011;65567;55.684;37.570;2023-12-22T01:18:11;8.35;;;4.30;;
70216;SDS011;65567;55.684;37.570;2023-12-22T01:20:36;6.10;;;3.63;;
70216;SDS011;65567;55.684;37.570;2023-12-22T01:23:02;5.45;;;3.03;;
70216;SDS011;65567;55.684;37.570;2023-12-22T01:25:28;6.93;;;3.72;;
70216;SDS011;65567;55.684;37.570;2023-12-22T01:27:54;7.22;;;1.92;;
70216;SDS011;65567;55.684;37.570;2023-12-22T01:30:20;9.57;;;3.35;;
70216;SDS011;65567;55.684;37.570;2023-12-22T01:32:45;3.75;;;1.85;;
70216;SDS011;65567;55.684;37.570;2023-12-22T01:35:11;7.63;;;4.00;;
70216;SDS011;65567;55.684;37.570;2023-12-22T01:37:37;3.53;;;2.20;;
70216;SDS011;65567;55.684;37.570;2023-12-22T01:40:04;7.78;;;3.58;;
70216;SDS011;65567;55.684;37.570;2023-12-22T01:42:31;7.03;;;3.90;;
70216;SDS011;65567;55.684;37.570;2023-12-22T01:44:56;12.93;;;5.97;;
70216;SDS011;65567;55.684;37.570;2023-12-22T01:47:22;7.20;;;4.10;;
70216;SDS011;65567;55.684;37.570;2023-12-22T01:49:48;7.10;;;3.28;;
70216;SDS011;65567;55.684;37.570;2023-12-22T01:52:15;11.65;;;5.43;;
70216;SDS011;65567;55.684;37.570;2023-12-22T01:54:44;13.82;;;5.97;;
70216;SDS011;65567;55.684;37.570;2023-12-22T01:57:12;10.35;;;4.72;;
70216;SDS011;65567;55.684;37.570;2023-12-22T01:59:42;5.40;;;2.92;;
70216;SDS011;65567;55.684;37.570;2023-12-22T02:02:08;10.18;;;4.90;;
70216;SDS011;65567;55.684;37.570;2023-12-22T02:04:34;8.60;;;4.00;;
70216;SDS011;65567;55.684;37.570;2023-12-22T02:07:01;12.13;;;5.32;;
70216;SDS011;65567;55.684;37.570;2023-12-22T02:09:27;10.05;;;4.38;;
70216;SDS011;65567;55.684;37.570;2023-12-22T02:11:53;6.85;;;4.20;;
70216;SDS011;65567;55.684;37.570;2023-12-22T02:14:19;5.97;;;3.05;;
70216;SDS011;65567;55.684;37.570;2023-12-22T02:16:46;5.32;;;3.63;;
70216;SDS011;65567;55.684;37.570;2023-12-22T02:19:41;9.00;;;5.82;;
70216;SDS011;65567;55.684;37.570;2023-12-22T02:22:08;5.50;;;2.95;;
70216;SDS011;65567;55.684;37.570;2023-12-22T02:24:35;7.93;;;4.05;;
70216;SDS011;65567;55.684;37.570;2023-12-22T02:27:05;6.88;;;4.25;;
70216;SDS011;65567;55.684;37.570;2023-12-22T02:29:39;3.28;;;2.08;;
70216;SDS011;65567;55.684;37.570;2023-12-22T02:32:10;7.07;;;3.60;;
70216;SDS011;65567;55.684;37.570;2023-12-22T02:34:42;5.68;;;3.20;;
70216;SDS011;65567;55.684;37.570;2023-12-22T02:37:10;6.95;;;3.97;;
70216;SDS011;65567;55.684;37.570;2023-12-22T02:39:36;4.65;;;3.35;;
70216;SDS011;65567;55.684;37.570;2023-12-22T02:42:03;10.35;;;4.35;;
70216;SDS011;65567;55.684;37.570;2023-12-22T02:44:31;8.40;;;4.40;;
70216;SDS011;65567;55.684;37.570;2023-12-22T02:47:00;6.88;;;3.95;;
70216;SDS011;65567;55.684;37.570;2023-12-22T02:49:26;4.05;;;2.42;;
70216;SDS011;65567;55.684;37.570;2023-12-22T02:51:51;7.47;;;4.38;;
70216;SDS011;65567;55.684;37.570;2023-12-22T02:54:17;9.75;;;5.10;;
70216;SDS011;65567;55.684;37.570;2023-12-22T02:56:45;7.78;;;5.68;;
70216;SDS011;65567;55.684;37.570;2023-12-22T02:59:14;4.53;;;3.00;;
70216;SDS011;65567;55.684;37.570;2023-12-22T03:01:39;6.93;;;4.28;;
70216;SDS011;65567;55.684;37.570;2023-12-22T03:04:05;8.88;;;5.03;;
70216;SDS011;65567;55.684;37.570;2023-12-22T03:06:31;6.65;;;3.45;;
70216;SDS011;65567;55.684;37.570;2023-12-22T03:08:57;10.15;;;4.53;;
70216;SDS011;65567;55.684;37.570;2023-12-22T03:11:23;3.53;;;2.08;;
70216;SDS011;65567;55.684;37.570;2023-12-22T03:13:49;5.20;;;3.08;;
70216;SDS011;65567;55.684;37.570;2023-12-22T03:16:15;7.50;;;4.18;;
70216;SDS011;65567;55.684;37.570;2023-12-22T03:18:40;5.63;;;3.60;;
70216;SDS011;65567;55.684;37.570;2023-12-22T03:21:06;9.15;;;5.32;;
70216;SDS011;65567;55.684;37.570;2023-12-22T03:23:32;8.18;;;4.15;;
70216;SDS011;65567;55.684;37.570;2023-12-22T03:25:57;5.60;;;3.45;;
70216;SDS011;65567;55.684;37.570;2023-12-22T03:28:27;7.55;;;3.88;;
70216;SDS011;65567;55.684;37.570;2023-12-22T03:30:53;5.65;;;3.42;;
70216;SDS011;65567;55.684;37.570;2023-12-22T03:33:19;7.13;;;3.33;;
70216;SDS011;65567;55.684;37.570;2023-12-22T03:35:47;6.15;;;4.07;;
70216;SDS011;65567;55.684;37.570;2023-12-22T03:38:13;4.20;;;2.88;;
70216;SDS011;65567;55.684;37.570;2023-12-22T03:40:39;9.48;;;5.88;;
70216;SDS011;65567;55.684;37.570;2023-12-22T03:43:05;7.53;;;5.07;;
70216;SDS011;65567;55.684;37.570;2023-12-22T03:45:31;7.80;;;3.75;;
70216;SDS011;65567;55.684;37.570;2023-12-22T03:47:56;7.05;;;4.25;;
70216;SDS011;65567;55.684;37.570;2023-12-22T03:50:22;9.60;;;5.55;;
70216;SDS011;65567;55.684;37.570;2023-12-22T03:52:47;9.40;;;4.70;;
70216;SDS011;65567;55.684;37.570;2023-12-22T03:55:13;10.98;;;6.60;;
70216;SDS011;65567;55.684;37.570;2023-12-22T03:57:39;7.25;;;4.53;;
70216;SDS011;65567;55.684;37.570;2023-12-22T04:00:05;8.35;;;4.63;;
70216;SDS011;65567;55.684;37.570;2023-12-22T04:02:31;8.13;;;4.57;;
70216;SDS011;65567;55.684;37.570;2023-12-22T04:04:57;4.53;;;3.25;;
70216;SDS011;65567;55.684;37.570;2023-12-22T04:07:23;5.53;;;3.33;;
70216;SDS011;65567;55.684;37.570;2023-12-22T04:09:49;7.45;;;4.45;;
70216;SDS011;65567;55.684;37.570;2023-12-22T04:12:14;8.68;;;5.20;;
70216;SDS011;65567;55.684;37.570;2023-12-22T04:14:40;6.88;;;4.05;;
70216;SDS011;65567;55.684;37.570;2023-12-22T04:17:06;7.35;;;4.22;;
70216;SDS011;65567;55.684;37.570;2023-12-22T04:19:32;7.95;;;4.93;;
70216;SDS011;65567;55.684;37.570;2023-12-22T04:22:00;9.77;;;6.03;;
70216;SDS011;65567;55.684;37.570;2023-12-22T04:24:26;7.60;;;4.57;;
70216;SDS011;65567;55.684;37.570;2023-12-22T04:26:54;7.20;;;4.63;;
70216;SDS011;65567;55.684;37.570;2023-12-22T04:29:20;2.95;;;1.90;;
70216;SDS011;65567;55.684;37.570;2023-12-22T04:31:48;5.60;;;3.40;;
70216;SDS011;65567;55.684;37.570;2023-12-22T04:34:14;6.97;;;4.68;;
70216;SDS011;65567;55.684;37.570;2023-12-22T04:36:41;8.27;;;6.57;;
70216;SDS011;65567;55.684;37.570;2023-12-22T04:39:07;7.45;;;3.55;;
70216;SDS011;65567;55.684;37.570;2023-12-22T04:41:35;7.07;;;4.00;;
70216;SDS011;65567;55.684;37.570;2023-12-22T04:44:02;6.00;;;3.85;;
70216;SDS011;65567;55.684;37.570;2023-12-22T04:46:29;8.10;;;6.28;;
70216;SDS011;65567;55.684;37.570;2023-12-22T04:48:55;8.48;;;5.35;;
70216;SDS011;65567;55.684;37.570;2023-12-22T04:51:21;9.32;;;5.22;;
70216;SDS011;65567;55.684;37.570;2023-12-22T04:53:47;6.85;;;4.15;;
70216;SDS011;65567;55.684;37.570;2023-12-22T04:56:13;6.18;;;3.17;;
70216;SDS011;65567;55.684;37.570;2023-12-22T04:58:39;4.55;;;2.90;;
70216;SDS011;65567;55.684;37.570;2023-12-22T05:01:07;3.75;;;2.22;;
70216;SDS011;65567;55.684;37.570;2023-12-22T05:03:33;7.78;;;4.57;;
70216;SDS011;65567;55.684;37.570;2023-12-22T05:05:58;6.10;;;3.58;;
70216;SDS011;65567;55.684;37.570;2023-12-22T05:08:24;7.53;;;4.45;;
70216;SDS011;65567;55.684;37.570;2023-12-22T05:10:50;8.45;;;4.47;;
70216;SDS011;65567;55.684;37.570;2023-12-22T05:13:16;6.07;;;4.05;;
70216;SDS011;65567;55.684;37.570;2023-12-22T05:15:44;7.00;;;4.15;;
70216;SDS011;65567;55.684;37.570;2023-12-22T05:18:10;8.95;;;5.78;;
70216;SDS011;65567;55.684;37.570;2023-12-22T05:20:36;8.38;;;6.03;;
70216;SDS011;65567;55.684;37.570;2023-12-22T05:23:02;9.27;;;5.90;;
70216;SDS011;65567;55.684;37.570;2023-12-22T05:25:28;7.72;;;5.47;;
70216;SDS011;65567;55.684;37.570;2023-12-22T05:27:54;7.65;;;4.82;;
70216;SDS011;65567;55.684;37.570;2023-12-22T05:30:20;10.13;;;6.28;;
70216;SDS011;65567;55.684;37.570;2023-12-22T05:32:49;10.40;;;5.85;;
70216;SDS011;65567;55.684;37.570;2023-12-22T05:35:15;12.52;;;8.48;;
70216;SDS011;65567;55.684;37.570;2023-12-22T05:37:44;11.13;;;6.88;;
70216;SDS011;65567;55.684;37.570;2023-12-22T05:40:09;13.25;;;5.57;;
70216;SDS011;65567;55.684;37.570;2023-12-22T05:42:37;8.25;;;4.97;;
70216;SDS011;65567;55.684;37.570;2023-12-22T05:45:03;8.52;;;4.43;;
70216;SDS011;65567;55.684;37.570;2023-12-22T05:47:31;11.05;;;6.55;;
70216;SDS011;65567;55.684;37.570;2023-12-22T05:49:58;10.80;;;6.38;;
70216;SDS011;65567;55.684;37.570;2023-12-22T05:52:24;14.68;;;11.68;;
70216;SDS011;65567;55.684;37.570;2023-12-22T05:54:50;13.05;;;7.78;;
70216;SDS011;65567;55.684;37.570;2023-12-22T05:57:19;9.02;;;5.32;;
70216;SDS011;65567;55.684;37.570;2023-12-22T05:59:50;15.63;;;11.50;;
70216;SDS011;65567;55.684;37.570;2023-12-22T06:02:18;11.23;;;7.47;;
70216;SDS011;65567;55.684;37.570;2023-12-22T06:04:44;11.95;;;7.18;;
70216;SDS011;65567;55.684;37.570;2023-12-22T06:07:10;13.13;;;8.15;;
70216;SDS011;65567;55.684;37.570;2023-12-22T06:09:36;12.40;;;7.18;;
70216;SDS011;65567;55.684;37.570;2023-12-22T06:12:02;10.05;;;5.72;;
70216;SDS011;65567;55.684;37.570;2023-12-22T06:14:28;12.18;;;6.82;;
70216;SDS011;65567;55.684;37.570;2023-12-22T06:16:55;12.27;;;6.70;;
70216;SDS011;65567;55.684;37.570;2023-12-22T06:19:23;14.43;;;8.70;;
70216;SDS011;65567;55.684;37.570;2023-12-22T06:21:53;13.30;;;7.20;;
70216;SDS011;65567;55.684;37.570;2023-12-22T06:24:19;15.25;;;11.93;;
70216;SDS011;65567;55.684;37.570;2023-12-22T06:26:45;14.95;;;10.60;;
70216;SDS011;65567;55.684;37.570;2023-12-22T06:29:10;10.77;;;7.53;;
70216;SDS011;65567;55.684;37.570;2023-12-22T06:31:37;11.90;;;7.57;;
70216;SDS011;65567;55.684;37.570;2023-12-22T06:34:02;15.95;;;9.90;;
70216;SDS011;65567;55.684;37.570;2023-12-22T06:36:31;11.80;;;7.30;;
70216;SDS011;65567;55.684;37.570;2023-12-22T06:38:56;13.25;;;7.72;;
70216;SDS011;65567;55.684;37.570;2023-12-22T06:41:29;11.07;;;7.43;;
70216;SDS011;65567;55.684;37.570;2023-12-22T06:46:22;13.25;;;9.25;;
70216;SDS011;65567;55.684;37.570;2023-12-22T06:48:52;14.10;;;8.98;;
70216;SDS011;65567;55.684;37.570;2023-12-22T06:51:26;6.90;;;4.55;;
70216;SDS011;65567;55.684;37.570;2023-12-22T06:53:53;9.77;;;6.13;;
70216;SDS011;65567;55.684;37.570;2023-12-22T06:56:24;12.97;;;8.23;;
70216;SDS011;65567;55.684;37.570;2023-12-22T06:58:51;11.85;;;7.88;;
70216;SDS011;65567;55.684;37.570;2023-12-22T07:01:26;12.48;;;5.90;;
70216;SDS011;65567;55.684;37.570;2023-12-22T07:03:57;10.00;;;5.57;;
70216;SDS011;65567;55.684;37.570;2023-12-22T07:06:25;11.77;;;6.95;;
70216;SDS011;65567;55.684;37.570;2023-12-22T07:11:37;11.35;;;8.10;;
70216;SDS011;65567;55.684;37.570;2023-12-22T07:14:04;10.75;;;7.70;;
70216;SDS011;65567;55.684;37.570;2023-12-22T07:16:29;11.50;;;7.43;;
70216;SDS011;65567;55.684;37.570;2023-12-22T07:18:55;10.70;;;5.40;;
70216;SDS011;65567;55.684;37.570;2023-12-22T07:21:23;12.20;;;6.68;;
70216;SDS011;65567;55.684;37.570;2023-12-22T07:23:49;9.38;;;4.90;;
70216;SDS011;65567;55.684;37.570;2023-12-22T07:26:15;13.32;;;7.85;;
70216;SDS011;65567;55.684;37.570;2023-12-22T07:28:41;13.80;;;9.38;;
70216;SDS011;65567;55.684;37.570;2023-12-22T07:31:07;11.23;;;8.80;;
70216;SDS011;65567;55.684;37.570;2023-12-22T07:33:33;8.90;;;5.97;;
70216;SDS011;65567;55.684;37.570;2023-12-22T07:35:58;9.73;;;5.85;;
70216;SDS011;65567;55.684;37.570;2023-12-22T07:38:24;9.73;;;6.03;;
70216;SDS011;65567;55.684;37.570;2023-12-22T07:40:50;7.25;;;4.93;;
70216;SDS011;65567;55.684;37.570;2023-12-22T07:43:18;11.68;;;6.32;;
70216;SDS011;65567;55.684;37.570;2023-12-22T07:45:44;8.68;;;5.47;;
70216;SDS011;65567;55.684;37.570;2023-12-22T07:48:10;9.50;;;5.63;;
70216;SDS011;65567;55.684;37.570;2023-12-22T07:50:36;10.98;;;4.63;;
70216;SDS011;65567;55.684;37.570;2023-12-22T07:53:01;11.57;;;6.32;;
70216;SDS011;65567;55.684;37.570;2023-12-22T07:55:27;12.88;;;8.38;;
70216;SDS011;65567;55.684;37.570;2023-12-22T07:57:53;11.15;;;6.80;;
70216;SDS011;65567;55.684;37.570;2023-12-22T08:00:19;8.10;;;5.18;;
70216;SDS011;65567;55.684;37.570;2023-12-22T08:02:45;11.80;;;5.60;;
70216;SDS011;65567;55.684;37.570;2023-12-22T08:05:10;12.27;;;6.13;;
70216;SDS011;65567;55.684;37.570;2023-12-22T08:07:36;12.38;;;4.30;;
70216;SDS011;65567;55.684;37.570;2023-12-22T08:10:03;13.32;;;7.93;;
70216;SDS011;65567;55.684;37.570;2023-12-22T08:12:29;9.70;;;6.43;;
70216;SDS011;65567;55.684;37.570;2023-12-22T08:14:57;11.93;;;7.07;;
70216;SDS011;65567;55.684;37.570;2023-12-22T08:17:24;7.35;;;4.78;;
70216;SDS011;65567;55.684;37.570;2023-12-22T08:19:49;10.15;;;6.38;;
70216;SDS011;65567;55.684;37.570;2023-12-22T08:22:15;8.48;;;4.88;;
70216;SDS011;65567;55.684;37.570;2023-12-22T08:24:41;5.10;;;3.25;;
70216;SDS011;65567;55.684;37.570;2023-12-22T08:27:07;14.02;;;8.30;;
70216;SDS011;65567;55.684;37.570;2023-12-22T08:29:33;8.90;;;6.55;;
70216;SDS011;65567;55.684;37.570;2023-12-22T08:32:00;10.20;;;5.43;;
70216;SDS011;65567;55.684;37.570;2023-12-22T08:34:26;9.85;;;6.35;;
70216;SDS011;65567;55.684;37.570;2023-12-22T08:36:55;7.80;;;5.47;;
70216;SDS011;65567;55.684;37.570;2023-12-22T08:39:21;9.60;;;5.88;;
70216;SDS011;65567;55.684;37.570;2023-12-22T08:41:47;11.57;;;6.97;;
70216;SDS011;65567;55.684;37.570;2023-12-22T08:44:13;9.23;;;6.82;;
70216;SDS011;65567;55.684;37.570;2023-12-22T08:46:42;7.88;;;5.10;;
70216;SDS011;65567;55.684;37.570;2023-12-22T08:49:07;10.27;;;6.60;;
70216;SDS011;65567;55.684;37.570;2023-12-22T08:51:33;10.35;;;6.10;;
70216;SDS011;65567;55.684;37.570;2023-12-22T08:53:59;8.48;;;4.25;;
70216;SDS011;65567;55.684;37.570;2023-12-22T08:56:25;11.68;;;6.75;;
70216;SDS011;65567;55.684;37.570;2023-12-22T08:58:52;12.13;;;8.45;;
70216;SDS011;65567;55.684;37.570;2023-12-22T09:01:20;8.85;;;5.75;;
70216;SDS011;65567;55.684;37.570;2023-12-22T09:03:47;10.73;;;6.88;;
70216;SDS011;65567;55.684;37.570;2023-12-22T09:06:17;9.88;;;6.28;;
70216;SDS011;65567;55.684;37.570;2023-12-22T09:08:43;8.77;;;5.70;;
70216;SDS011;65567;55.684;37.570;2023-12-22T09:11:16;9.00;;;6.03;;
70216;SDS011;65567;55.684;37.570;2023-12-22T09:13:43;13.98;;;9.27;;
70216;SDS011;65567;55.684;37.570;2023-12-22T09:16:09;13.45;;;8.80;;
70216;SDS011;65567;55.684;37.570;2023-12-22T09:18:36;12.25;;;7.80;;
70216;SDS011;65567;55.684;37.570;2023-12-22T09:21:02;13.35;;;9.50;;
70216;SDS011;65567;55.684;37.570;2023-12-22T09:23:31;14.30;;;9.48;;
70216;SDS011;65567;55.684;37.570;2023-12-22T09:25:56;15.77;;;10.65;;
70216;SDS011;65567;55.684;37.570;2023-12-22T09:28:23;15.85;;;9.95;;
70216;SDS011;65567;55.684;37.570;2023-12-22T09:30:50;19.13;;;11.95;;
70216;SDS011;65567;55.684;37.570;2023-12-22T09:33:18;16.00;;;10.00;;
70216;SDS011;65567;55.684;37.570;2023-12-22T09:35:44;17.95;;;11.30;;
70216;SDS011;65567;55.684;37.570;2023-12-22T09:38:10;20.27;;;12.65;;
70216;SDS011;65567;55.684;37.570;2023-12-22T09:40:39;16.38;;;10.18;;
70216;SDS011;65567;55.684;37.570;2023-12-22T09:43:05;15.27;;;9.07;;
70216;SDS011;65567;55.684;37.570;2023-12-22T09:45:32;19.15;;;10.85;;
70216;SDS011;65567;55.684;37.570;2023-12-22T09:48:03;15.65;;;8.55;;
70216;SDS011;65567;55.684;37.570;2023-12-22T09:50:31;14.80;;;9.65;;
70216;SDS011;65567;55.684;37.570;2023-12-22T09:52:59;15.38;;;9.20;;
70216;SDS011;65567;55.684;37.570;2023-12-22T09:55:26;13.32;;;8.45;;
70216;SDS011;65567;55.684;37.570;2023-12-22T09:57:54;12.48;;;7.80;;
70216;SDS011;65567;55.684;37.570;2023-12-22T10:00:21;13.23;;;8.07;;
70216;SDS011;65567;55.684;37.570;2023-12-22T10:02:49;12.65;;;7.97;;
70216;SDS011;65567;55.684;37.570;2023-12-22T10:05:14;16.27;;;11.65;;
70216;SDS011;65567;55.684;37.570;2023-12-22T10:07:43;14.77;;;8.60;;
70216;SDS011;65567;55.684;37.570;2023-12-22T10:10:10;16.75;;;10.80;;
70216;SDS011;65567;55.684;37.570;2023-12-22T10:12:42;14.43;;;8.43;;
70216;SDS011;65567;55.684;37.570;2023-12-22T10:15:10;11.73;;;7.65;;
70216;SDS011;65567;55.684;37.570;2023-12-22T10:17:37;18.17;;;10.45;;
70216;SDS011;65567;55.684;37.570;2023-12-22T10:20:03;16.58;;;10.02;;
70216;SDS011;65567;55.684;37.570;2023-12-22T10:22:29;17.08;;;9.65;;
70216;SDS011;65567;55.684;37.570;2023-12-22T10:24:55;15.82;;;8.80;;
70216;SDS011;65567;55.684;37.570;2023-12-22T10:27:21;16.38;;;10.18;;
70216;SDS011;65567;55.684;37.570;2023-12-22T10:29:50;15.27;;;10.15;;
70216;SDS011;65567;55.684;37.570;2023-12-22T10:32:19;10.45;;;5.80;;
70216;SDS011;65567;55.684;37.570;2023-12-22T10:34:51;11.27;;;6.85;;
70216;SDS011;65567;55.684;37.570;2023-12-22T10:37:17;12.32;;;8.13;;
70216;SDS011;65567;55.684;37.570;2023-12-22T10:39:42;12.85;;;7.47;;
70216;SDS011;65567;55.684;37.570;2023-12-22T10:42:11;11.25;;;7.57;;
70216;SDS011;65567;55.684;37.570;2023-12-22T10:44:37;10.90;;;7.22;;
70216;SDS011;65567;55.684;37.570;2023-12-22T10:47:05;10.98;;;7.53;;
70216;SDS011;65567;55.684;37.570;2023-12-22T10:49:31;9.93;;;6.45;;
70216;SDS011;65567;55.684;37.570;2023-12-22T10:51:59;12.80;;;6.93;;
70216;SDS011;65567;55.684;37.570;2023-12-22T10:54:24;14.80;;;9.05;;
70216;SDS011;65567;55.684;37.570;2023-12-22T10:56:50;8.50;;;4.82;;
70216;SDS011;65567;55.684;37.570;2023-12-22T10:59:22;11.60;;;7.13;;
70216;SDS011;65567;55.684;37.570;2023-12-22T11:01:48;10.75;;;7.32;;
70216;SDS011;65567;55.684;37.570;2023-12-22T11:04:20;11.43;;;6.70;;
70216;SDS011;65567;55.684;37.570;2023-12-22T11:06:49;9.73;;;6.28;;
70216;SDS011;65567;55.684;37.570;2023-12-22T11:09:18;10.20;;;6.50;;
70216;SDS011;65567;55.684;37.570;2023-12-22T11:11:47;11.27;;;4.53;;
70216;SDS011;65567;55.684;37.570;2023-12-22T11:14:14;10.90;;;6.85;;
70216;SDS011;65567;55.684;37.570;2023-12-22T11:16:41;11.98;;;6.70;;
70216;SDS011;65567;55.684;37.570;2023-12-22T11:19:12;11.48;;;6.13;;
70216;SDS011;65567;55.684;37.570;2023-12-22T11:21:39;10.73;;;5.82;;
70216;SDS011;65567;55.684;37.570;2023-12-22T11:24:05;11.70;;;6.15;;
70216;SDS011;65567;55.684;37.570;2023-12-22T11:26:32;12.73;;;8.00;;
70216;SDS011;65567;55.684;37.570;2023-12-22T11:28:58;14.90;;;8.70;;
70216;SDS011;65567;55.684;37.570;2023-12-22T11:31:25;13.20;;;8.00;;
70216;SDS011;65567;55.684;37.570;2023-12-22T11:33:53;10.77;;;6.18;;
70216;SDS011;65567;55.684;37.570;2023-12-22T11:36:21;13.75;;;6.88;;
70216;SDS011;65567;55.684;37.570;2023-12-22T11:38:48;13.13;;;7.57;;
70216;SDS011;65567;55.684;37.570;2023-12-22T11:41:19;10.80;;;6.30;;
70216;SDS011;65567;55.684;37.570;2023-12-22T11:43:51;10.80;;;5.88;;
70216;SDS011;65567;55.684;37.570;2023-12-22T11:46:19;9.77;;;6.53;;
70216;SDS011;65567;55.684;37.570;2023-12-22T11:48:47;12.45;;;7.38;;
70216;SDS011;65567;55.684;37.570;2023-12-22T11:51:14;10.02;;;5.40;;
70216;SDS011;65567;55.684;37.570;2023-12-22T11:53:41;10.45;;;6.13;;
70216;SDS011;65567;55.684;37.570;2023-12-22T11:56:07;10.57;;;6.72;;
70216;SDS011;65567;55.684;37.570;2023-12-22T11:58:35;9.43;;;6.25;;
70216;SDS011;65567;55.684;37.570;2023-12-22T12:01:18;12.85;;;5.65;;
70216;SDS011;65567;55.684;37.570;2023-12-22T12:06:17;10.27;;;6.25;;
70216;SDS011;65567;55.684;37.570;2023-12-22T12:08:57;11.05;;;5.75;;
70216;SDS011;65567;55.684;37.570;2023-12-22T12:14:25;7.85;;;5.22;;
70216;SDS011;65567;55.684;37.570;2023-12-22T12:16:59;9.73;;;5.07;;
70216;SDS011;65567;55.684;37.570;2023-12-22T12:19:37;7.60;;;4.38;;
70216;SDS011;65567;55.684;37.570;2023-12-22T12:22:03;8.93;;;5.35;;
70216;SDS011;65567;55.684;37.570;2023-12-22T12:24:29;7.63;;;4.68;;
70216;SDS011;65567;55.684;37.570;2023-12-22T12:26:55;11.68;;;6.65;;
70216;SDS011;65567;55.684;37.570;2023-12-22T12:29:21;9.93;;;6.13;;
70216;SDS011;65567;55.684;37.570;2023-12-22T12:31:47;8.30;;;5.07;;
70216;SDS011;65567;55.684;37.570;2023-12-22T12:34:13;7.85;;;4.18;;
70216;SDS011;65567;55.684;37.570;2023-12-22T12:36:43;9.93;;;4.72;;
70216;SDS011;65567;55.684;37.570;2023-12-22T12:39:13;8.02;;;5.10;;
70216;SDS011;65567;55.684;37.570;2023-12-22T12:41:43;11.75;;;6.32;;
70216;SDS011;65567;55.684;37.570;2023-12-22T12:44:13;13.40;;;7.55;;
70216;SDS011;65567;55.684;37.570;2023-12-22T12:46:42;7.63;;;4.85;;
70216;SDS011;65567;55.684;37.570;2023-12-22T12:49:09;12.65;;;6.28;;
70216;SDS011;65567;55.684;37.570;2023-12-22T12:51:43;9.63;;;4.78;;
70216;SDS011;65567;55.684;37.570;2023-12-22T12:54:12;9.07;;;5.23;;
70216;SDS011;65567;55.684;37.570;2023-12-22T12:56:42;11.25;;;7.18;;
70216;SDS011;65567;55.684;37.570;2023-12-22T12:59:10;8.25;;;4.82;;
70216;SDS011;65567;55.684;37.570;2023-12-22T13:01:40;9.93;;;5.90;;
70216;SDS011;65567;55.684;37.570;2023-12-22T13:04:07;10.70;;;6.55;;
70216;SDS011;65567;55.684;37.570;2023-12-22T13:06:33;9.07;;;6.28;;
70216;SDS011;65567;55.684;37.570;2023-12-22T13:08:59;12.85;;;6.70;;
70216;SDS011;65567;55.684;37.570;2023-12-22T13:11:31;13.20;;;6.75;;
70216;SDS011;65567;55.684;37.570;2023-12-22T13:13:58;12.02;;;6.50;;
70216;SDS011;65567;55.684;37.570;2023-12-22T13:16:24;10.07;;;6.45;;
70216;SDS011;65567;55.684;37.570;2023-12-22T13:18:53;9.52;;;5.05;;
70216;SDS011;65567;55.684;37.570;2023-12-22T13:21:19;8.80;;;5.68;;
70216;SDS011;65567;55.684;37.570;2023-12-22T13:23:45;12.32;;;6.80;;
70216;SDS011;65567;55.684;37.570;2023-12-22T13:26:17;15.88;;;7.35;;
70216;SDS011;65567;55.684;37.570;2023-12-22T13:28:44;10.35;;;5.55;;
70216;SDS011;65567;55.684;37.570;2023-12-22T13:31:10;10.82;;;6.00;;
70216;SDS011;65567;55.684;37.570;2023-12-22T13:33:43;12.13;;;7.55;;
70216;SDS011;65567;55.684;37.570;2023-12-22T13:36:10;10.88;;;6.15;;
70216;SDS011;65567;55.684;37.570;2023-12-22T13:38:39;10.68;;;6.57;;
70216;SDS011;65567;55.684;37.570;2023-12-22T13:41:10;14.00;;;7.13;;
70216;SDS011;65567;55.684;37.570;2023-12-22T13:43:38;8.60;;;5.32;;
70216;SDS011;65567;55.684;37.570;2023-12-22T13:46:05;12.07;;;7.43;;
70216;SDS011;65567;55.684;37.570;2023-12-22T13:48:33;11.82;;;7.07;;
70216;SDS011;65567;55.684;37.570;2023-12-22T13:50:59;10.88;;;6.75;;
70216;SDS011;65567;55.684;37.570;2023-12-22T13:53:26;8.25;;;4.80;;
70216;SDS011;65567;55.684;37.570;2023-12-22T13:55:59;8.55;;;4.72;;
70216;SDS011;65567;55.684;37.570;2023-12-22T13:58:25;9.48;;;5.45;;
70216;SDS011;65567;55.684;37.570;2023-12-22T14:00:52;9.88;;;6.05;;
70216;SDS011;65567;55.684;37.570;2023-12-22T14:03:19;12.18;;;6.97;;
70216;SDS011;65567;55.684;37.570;2023-12-22T14:05:53;9.98;;;6.68;;
70216;SDS011;65567;55.684;37.570;2023-12-22T14:08:20;10.32;;;6.53;;
70216;SDS011;65567;55.684;37.570;2023-12-22T14:10:46;11.98;;;6.72;;
70216;SDS011;65567;55.684;37.570;2023-12-22T14:13:14;10.13;;;5.80;;
70216;SDS011;65567;55.684;37.570;2023-12-22T14:15:43;8.27;;;5.57;;
70216;SDS011;65567;55.684;37.570;2023-12-22T14:18:12;10.38;;;6.70;;
70216;SDS011;65567;55.684;37.570;2023-12-22T14:20:38;10.15;;;5.75;;
70216;SDS011;65567;55.684;37.570;2023-12-22T14:23:04;10.15;;;5.30;;
70216;SDS011;65567;55.684;37.570;2023-12-22T14:25:30;10.65;;;6.47;;
70216;SDS011;65567;55.684;37.570;2023-12-22T14:27:57;7.55;;;4.53;;
70216;SDS011;65567;55.684;37.570;2023-12-22T14:30:24;9.93;;;5.38;;
70216;SDS011;65567;55.684;37.570;2023-12-22T14:32:50;8.63;;;5.65;;
70216;SDS011;65567;55.684;37.570;2023-12-22T14:35:16;12.73;;;8.68;;
70216;SDS011;65567;55.684;37.570;2023-12-22T14:37:41;10.45;;;5.70;;